createdAt,value
2023-02-11T00:01:19.660Z,101544.81
2023-02-11T00:03:46.964Z,101533.59
2023-02-11T00:06:14.196Z,101528.63
2023-02-11T00:08:41.400Z,101521.81
2023-02-11T00:11:12.686Z,101523.53
2023-02-11T00:13:40.122Z,101521.00
2023-02-11T00:16:09.576Z,101506.34
2023-02-11T00:18:36.804Z,101496.28
2023-02-11T00:21:09.086Z,101489.50
2023-02-11T00:23:36.963Z,101479.38
2023-02-11T00:26:11.505Z,101472.50
2023-02-11T00:28:40.643Z,101456.34
2023-02-11T00:31:11.346Z,101445.25
2023-02-11T00:33:38.659Z,101455.50
2023-02-11T00:36:08.934Z,101463.13
2023-02-11T00:38:36.505Z,101467.28
2023-02-11T00:41:03.731Z,101469.09
2023-02-11T00:43:31.855Z,101475.06
2023-02-11T00:45:59.438Z,101450.50
2023-02-11T00:48:26.636Z,101445.53
2023-02-11T00:50:54.097Z,101437.78
2023-02-11T00:53:21.258Z,101394.50
2023-02-11T00:55:48.617Z,101426.72
2023-02-11T00:58:16.399Z,101438.47
2023-02-11T01:00:43.525Z,101441.88
2023-02-11T01:03:10.645Z,101472.78
2023-02-11T01:05:37.764Z,101464.19
2023-02-11T01:08:05.454Z,101460.03
2023-02-11T01:10:32.869Z,101454.00
2023-02-11T01:13:00.242Z,101452.09
2023-02-11T01:15:27.598Z,101467.53
2023-02-11T01:17:55.582Z,101454.00
2023-02-11T01:20:25.935Z,101426.72
2023-02-11T01:22:53.084Z,101399.47
2023-02-11T01:25:20.274Z,101427.41
2023-02-11T01:27:47.540Z,101421.47
2023-02-11T01:30:15.128Z,101419.88
2023-02-11T01:32:42.280Z,101408.84
2023-02-11T01:35:09.612Z,101403.63
2023-02-11T01:37:37.288Z,101407.00
2023-02-11T01:40:12.005Z,101370.41
2023-02-11T01:42:39.368Z,101365.22
2023-02-11T01:45:57.613Z,101348.06
2023-02-11T01:48:31.529Z,101352.88
2023-02-11T01:51:08.533Z,101357.09
2023-02-11T01:53:57.406Z,101339.31
2023-02-11T01:56:46.090Z,101348.06
2023-02-11T01:59:22.884Z,101348.84
2023-02-11T02:01:57.419Z,101349.69
2023-02-11T02:04:31.759Z,101336.22
2023-02-11T02:07:12.420Z,101313.81
2023-02-11T02:09:45.211Z,101317.28
2023-02-11T02:12:12.373Z,101308.84
2023-02-11T02:14:41.424Z,101312.34
2023-02-11T02:17:20.654Z,101324.16
2023-02-11T02:20:08.812Z,101313.94
2023-02-11T02:23:09.580Z,101300.97
2023-02-11T02:25:59.779Z,101301.22
2023-02-11T02:29:02.154Z,101286.41
2023-02-11T02:31:38.283Z,101295.13
2023-02-11T02:34:24.359Z,101297.78
2023-02-11T02:37:09.686Z,101298.50
2023-02-11T02:39:37.974Z,101301.09
2023-02-11T02:42:06.102Z,101293.41
2023-02-11T02:44:34.404Z,101291.03
2023-02-11T02:47:01.681Z,101276.63
2023-02-11T02:49:28.809Z,101261.31
2023-02-11T02:52:15.668Z,101257.94
2023-02-11T02:55:01.167Z,101251.09
2023-02-11T02:57:55.318Z,101234.91
2023-02-11T03:00:44.424Z,101219.59
2023-02-11T03:03:36.646Z,101224.69
2023-02-11T03:06:28.688Z,101218.59
2023-02-11T03:09:13.158Z,101229.75
2023-02-11T03:11:40.693Z,101221.97
2023-02-11T03:14:13.225Z,101226.38
2023-02-11T03:16:41.128Z,101215.94
2023-02-11T03:19:26.805Z,101218.84
2023-02-11T03:21:56.540Z,101211.91
2023-02-11T03:24:31.367Z,101212.03
2023-02-11T03:27:04.236Z,101213.75
2023-02-11T03:29:37.853Z,101206.91
2023-02-11T03:32:24.288Z,101199.47
2023-02-11T03:35:01.073Z,101199.38
2023-02-11T03:37:41.128Z,101197.66
2023-02-11T03:40:17.644Z,101204.50
2023-02-11T03:43:17.972Z,101197.69
2023-02-11T03:45:48.174Z,101184.16
2023-02-11T03:48:22.853Z,101174.81
2023-02-11T03:50:52.496Z,101180.91
2023-02-11T03:53:22.302Z,101187.72
2023-02-11T03:55:52.126Z,101169.13
2023-02-11T03:58:19.697Z,101171.69
2023-02-11T04:00:46.912Z,101176.03
2023-02-11T04:03:14.235Z,101170.03
2023-02-11T04:05:41.484Z,101152.91
2023-02-11T04:08:08.977Z,101154.75
2023-02-11T04:10:36.242Z,101149.66
2023-02-11T04:13:03.323Z,101153.03
2023-02-11T04:15:30.494Z,101151.47
2023-02-11T04:17:57.596Z,101141.22
2023-02-11T04:20:24.934Z,101135.28
2023-02-11T04:22:52.091Z,101127.50
2023-02-11T04:25:19.227Z,101119.16
2023-02-11T04:27:46.285Z,101118.34
2023-02-11T04:30:13.891Z,101115.81
2023-02-11T04:32:40.929Z,101092.72
2023-02-11T04:35:08.293Z,101107.09
2023-02-11T04:37:35.984Z,101111.44
2023-02-11T04:40:03.615Z,101106.38
2023-02-11T04:42:30.727Z,101115.81
2023-02-11T04:44:58.008Z,101108.94
2023-02-11T04:47:25.182Z,101119.16
2023-02-11T04:49:52.220Z,101123.38
2023-02-11T04:52:19.243Z,101111.50
2023-02-11T04:54:46.430Z,101113.94
2023-02-11T04:57:13.524Z,101122.53
2023-02-11T04:59:40.986Z,101113.19
2023-02-11T05:02:08.049Z,101118.41
2023-02-11T05:04:35.415Z,101100.50
2023-02-11T05:07:02.494Z,101093.63
2023-02-11T05:09:29.607Z,101083.53
2023-02-11T05:11:56.723Z,101083.41
2023-02-11T05:14:23.880Z,101081.59
2023-02-11T05:16:50.989Z,101038.31
2023-02-11T05:19:18.173Z,101073.97
2023-02-11T05:22:00.201Z,101090.28
2023-02-11T05:24:29.078Z,101071.41
2023-02-11T05:26:56.186Z,101075.75
2023-02-11T05:29:23.282Z,101071.50
2023-02-11T05:31:50.358Z,101060.53
2023-02-11T05:34:17.443Z,101054.44
2023-02-11T05:36:44.499Z,101062.03
2023-02-11T05:39:11.527Z,101064.78
2023-02-11T05:41:38.636Z,101052.00
2023-02-11T05:44:05.746Z,101068.13
2023-02-11T05:46:32.864Z,101052.81
2023-02-11T05:49:00.050Z,101056.19
2023-02-11T05:51:27.139Z,101054.56
2023-02-11T05:53:54.394Z,101028.94
2023-02-11T05:56:21.621Z,101040.97
2023-02-11T05:58:48.770Z,101044.25
2023-02-11T06:01:15.786Z,101016.84
2023-02-11T06:03:42.899Z,101015.25
2023-02-11T06:06:12.923Z,101023.69
2023-02-11T06:08:40.237Z,101027.94
2023-02-11T06:11:07.395Z,101028.94
2023-02-11T06:13:34.978Z,101032.38
2023-02-11T06:16:03.379Z,101020.22
2023-02-11T06:18:30.806Z,101036.44
2023-02-11T06:20:57.928Z,101026.19
2023-02-11T06:23:25.032Z,101015.13
2023-02-11T06:25:53.536Z,101008.28
2023-02-11T06:28:20.916Z,101012.47
2023-02-11T06:30:48.125Z,101011.66
2023-02-11T06:33:15.876Z,100999.72
2023-02-11T06:35:42.977Z,101012.47
2023-02-11T06:38:10.110Z,101006.53
2023-02-11T06:40:37.261Z,100992.97
2023-02-11T06:43:04.323Z,101000.41
2023-02-11T06:45:31.386Z,101000.63
2023-02-11T06:47:58.625Z,100992.97
2023-02-11T06:50:25.723Z,100981.56
2023-02-11T06:52:52.857Z,100996.22
2023-02-11T06:55:20.274Z,101000.50
2023-02-11T06:57:47.375Z,101003.06
2023-02-11T07:00:14.867Z,101007.38
2023-02-11T07:02:42.058Z,100997.75
2023-02-11T07:05:09.684Z,101007.28
2023-02-11T07:07:37.342Z,101016.53
2023-02-11T07:10:04.895Z,101021.63
2023-02-11T07:12:32.530Z,101020.72
2023-02-11T07:14:59.776Z,101008.06
2023-02-11T07:17:26.848Z,101001.09
2023-02-11T07:19:53.925Z,101007.94
2023-02-11T07:22:21.086Z,100992.63
2023-02-11T07:24:48.229Z,101007.94
2023-02-11T07:27:15.451Z,100996.97
2023-02-11T07:29:42.936Z,100999.56
2023-02-11T07:32:10.234Z,100991.78
2023-02-11T07:34:37.679Z,100989.38
2023-02-11T07:37:05.053Z,100990.19
2023-02-11T07:39:32.335Z,100997.94
2023-02-11T07:42:00.262Z,100996.22
2023-02-11T07:44:27.925Z,100985.91
2023-02-11T07:46:55.023Z,100989.63
2023-02-11T07:49:22.165Z,100974.31
2023-02-11T07:51:51.408Z,100961.56
2023-02-11T07:54:18.574Z,100977.66
2023-02-11T07:56:46.120Z,100975.97
2023-02-11T07:59:13.184Z,100987.97
2023-02-11T08:01:40.488Z,100983.75
2023-02-11T08:04:07.567Z,100970.19
2023-02-11T08:06:35.860Z,100969.41
2023-02-11T08:09:09.598Z,100972.91
2023-02-11T08:11:37.201Z,100964.44
2023-02-11T08:14:04.468Z,100966.16
2023-02-11T08:16:35.023Z,100973.94
2023-02-11T08:19:11.850Z,100969.75
2023-02-11T08:21:39.915Z,100964.63
2023-02-11T08:24:08.002Z,100938.09
2023-02-11T08:26:35.863Z,100942.59
2023-02-11T08:29:07.765Z,100935.00
2023-02-11T08:31:38.288Z,100944.31
2023-02-11T08:34:06.650Z,100943.56
2023-02-11T08:36:36.106Z,100942.72
2023-02-11T08:39:22.692Z,100937.72
2023-02-11T08:41:52.824Z,100935.97
2023-02-11T08:44:20.235Z,100941.09
2023-02-11T08:46:48.017Z,100948.03
2023-02-11T08:49:15.771Z,100954.88
2023-02-11T08:51:42.986Z,100948.16
2023-02-11T08:54:10.395Z,100953.38
2023-02-11T08:56:39.448Z,100927.94
2023-02-11T08:59:07.464Z,100922.06
2023-02-11T09:01:36.027Z,100929.00
2023-02-11T09:04:03.434Z,100926.53
2023-02-11T09:06:30.702Z,100930.09
2023-02-11T09:08:58.561Z,100932.91
2023-02-11T09:11:30.005Z,100947.41
2023-02-11T09:13:57.441Z,100938.06
2023-02-11T09:16:28.440Z,100935.59
2023-02-11T09:19:01.200Z,100930.59
2023-02-11T09:21:29.294Z,100932.44
2023-02-11T09:23:56.996Z,100919.69
2023-02-11T09:26:29.435Z,100910.47
2023-02-11T09:28:57.173Z,100913.97
2023-02-11T09:31:26.918Z,100919.97
2023-02-11T09:33:57.241Z,100909.75
2023-02-11T09:36:25.866Z,100921.63
2023-02-11T09:38:53.735Z,100926.00
2023-02-11T09:41:23.828Z,100932.81
2023-02-11T09:43:54.881Z,100929.47
2023-02-11T09:46:24.570Z,100917.63
2023-02-11T09:48:54.920Z,100929.66
2023-02-11T09:52:09.486Z,100937.34
2023-02-11T09:54:57.111Z,100918.59
2023-02-11T09:57:33.549Z,100927.94
2023-02-11T10:00:02.281Z,100923.88
2023-02-11T10:02:57.440Z,100894.00
2023-02-11T10:05:27.194Z,100901.03
2023-02-11T10:08:15.903Z,100861.88
2023-02-11T10:10:57.084Z,100880.50
2023-02-11T10:13:36.421Z,100887.59
2023-02-11T10:16:31.476Z,100865.44
2023-02-11T10:19:20.350Z,100846.84
2023-02-11T10:22:10.395Z,100826.50
2023-02-11T10:24:38.371Z,100824.06
2023-02-11T10:27:21.574Z,100794.28
2023-02-11T10:29:54.587Z,100767.03
2023-02-11T10:33:03.609Z,100790.28
2023-02-11T10:35:32.541Z,100799.81
2023-02-11T10:38:00.734Z,100786.22
2023-02-11T10:40:30.608Z,100805.81
2023-02-11T10:43:12.849Z,100852.94
2023-02-11T10:45:53.341Z,100849.56
2023-02-11T10:48:42.435Z,100820.56
2023-02-11T10:51:26.540Z,100825.75
2023-02-11T10:54:06.357Z,100820.72
2023-02-11T10:56:38.038Z,100819.00
2023-02-11T10:59:14.673Z,100822.50
2023-02-11T11:01:46.920Z,100843.09
2023-02-11T11:04:37.683Z,100836.13
2023-02-11T11:07:33.166Z,100838.06
2023-02-11T11:10:25.921Z,100849.22
2023-02-11T11:12:53.150Z,100848.44
2023-02-11T11:15:26.696Z,100846.91
2023-02-11T11:18:22.083Z,100823.81
2023-02-11T11:20:59.989Z,100842.78
2023-02-11T11:23:30.225Z,100842.03
2023-02-11T11:26:07.615Z,100844.56
2023-02-11T11:28:51.801Z,100842.94
2023-02-11T11:31:23.151Z,100860.06
2023-02-11T11:33:53.926Z,100860.94
2023-02-11T11:36:25.019Z,100860.16
2023-02-11T11:39:00.679Z,100864.47
2023-02-11T11:41:33.980Z,100876.44
2023-02-11T11:44:38.542Z,100881.66
2023-02-11T11:47:29.862Z,100881.75
2023-02-11T11:50:35.488Z,100885.03
2023-02-11T11:53:12.807Z,100902.22
2023-02-11T11:55:59.797Z,100886.94
2023-02-11T11:58:29.534Z,100883.63
2023-02-11T12:01:11.483Z,100895.63
2023-02-11T12:04:03.926Z,100880.34
2023-02-11T12:07:03.268Z,100880.41
2023-02-11T12:10:00.939Z,100885.63
2023-02-11T12:12:46.556Z,100866.06
2023-02-11T12:15:19.876Z,100866.97
2023-02-11T12:18:16.157Z,100865.47
2023-02-11T12:20:58.280Z,100868.13
2023-02-11T12:23:43.212Z,100857.97
2023-02-11T12:26:13.088Z,100852.91
2023-02-11T12:29:01.707Z,100852.06
2023-02-11T12:31:40.801Z,100850.41
2023-02-11T12:34:22.335Z,100859.00
2023-02-11T12:37:15.800Z,100860.72
2023-02-11T12:39:54.920Z,100861.63
2023-02-11T12:43:01.463Z,100854.03
2023-02-11T12:45:46.087Z,100861.72
2023-02-11T12:48:39.150Z,100857.50
2023-02-11T12:51:06.364Z,100837.09
2023-02-11T12:53:39.197Z,100843.91
2023-02-11T12:56:18.647Z,100834.56
2023-02-11T12:58:48.954Z,100849.16
2023-02-11T13:01:21.822Z,100854.28
2023-02-11T13:03:55.080Z,100856.00
2023-02-11T13:06:45.062Z,100850.88
2023-02-11T13:09:19.219Z,100859.47
2023-02-11T13:11:52.255Z,100866.31
2023-02-11T13:14:29.904Z,100858.69
2023-02-11T13:16:58.711Z,100872.41
2023-02-11T13:19:31.658Z,100881.81
2023-02-11T13:22:19.866Z,100874.13
2023-02-11T13:24:56.905Z,100890.34
2023-02-11T13:27:50.898Z,100890.28
2023-02-11T13:30:35.286Z,100895.41
2023-02-11T13:33:21.299Z,100903.13
2023-02-11T13:36:09.993Z,100902.25
2023-02-11T13:38:38.063Z,100914.25
2023-02-11T13:41:33.465Z,100919.38
2023-02-11T13:44:22.723Z,100912.56
2023-02-11T13:47:05.001Z,100911.78
2023-02-11T13:49:35.650Z,100911.78
2023-02-11T13:52:06.987Z,100914.41
2023-02-11T13:54:38.539Z,100921.25
2023-02-11T13:57:20.810Z,100918.69
2023-02-11T13:59:49.528Z,100920.44
2023-02-11T14:02:53.364Z,100933.31
2023-02-11T14:05:51.184Z,100936.69
2023-02-11T14:08:40.512Z,100943.50
2023-02-11T14:11:33.528Z,100953.81
2023-02-11T14:14:26.858Z,100950.28
2023-02-11T14:17:00.387Z,100948.53
2023-02-11T14:19:36.501Z,100953.66
2023-02-11T14:22:10.726Z,100953.56
2023-02-11T14:24:37.784Z,100955.41
2023-02-11T14:27:21.620Z,100955.25
2023-02-11T14:30:26.407Z,100960.44
2023-02-11T14:32:53.489Z,100965.56
2023-02-11T14:35:32.438Z,100976.69
2023-02-11T14:38:02.375Z,100972.41
2023-02-11T14:40:48.186Z,100978.38
2023-02-11T14:43:29.119Z,100983.44
2023-02-11T14:45:58.640Z,100998.03
2023-02-11T14:48:38.257Z,100990.34
2023-02-11T14:51:19.467Z,100999.75
2023-02-11T14:53:53.689Z,101001.44
2023-02-11T14:56:26.692Z,101004.88
2023-02-11T14:58:55.461Z,101015.16
2023-02-11T15:01:42.477Z,101014.25
2023-02-11T15:04:28.879Z,101012.56
2023-02-11T15:06:59.581Z,101009.16
2023-02-11T15:09:45.925Z,101021.16
2023-02-11T15:12:25.737Z,101014.34
2023-02-11T15:15:00.689Z,101020.38
2023-02-11T15:17:32.128Z,101025.50
2023-02-11T15:20:02.791Z,101025.50
2023-02-11T15:22:33.399Z,101022.09
2023-02-11T15:25:11.072Z,101020.28
2023-02-11T15:27:44.420Z,101028.06
2023-02-11T15:30:26.829Z,101022.03
2023-02-11T15:33:03.345Z,101028.88
2023-02-11T15:35:35.330Z,101033.13
2023-02-11T15:38:03.737Z,101038.31
2023-02-11T15:40:33.856Z,101045.09
2023-02-11T15:43:03.545Z,101044.25
2023-02-11T15:45:58.680Z,101048.50
2023-02-11T15:48:33.001Z,101040.69
2023-02-11T15:51:06.075Z,101054.41
2023-02-11T15:53:42.544Z,101057.13
2023-02-11T15:56:17.588Z,101066.50
2023-02-11T15:58:47.854Z,101076.75
2023-02-11T16:01:15.200Z,101082.69
2023-02-11T16:03:43.460Z,101081.00
2023-02-11T16:06:35.099Z,101090.44
2023-02-11T16:09:06.165Z,101098.13
2023-02-11T16:11:53.966Z,101108.41
2023-02-11T16:14:29.616Z,101105.06
2023-02-11T16:17:00.390Z,101114.53
2023-02-11T16:19:28.921Z,101111.03
2023-02-11T16:21:58.660Z,101119.72
2023-02-11T16:24:30.440Z,101129.19
2023-02-11T16:27:00.461Z,101126.63
2023-02-11T16:29:30.581Z,101125.91
2023-02-11T16:32:08.515Z,101137.03
2023-02-11T16:34:36.032Z,101131.13
2023-02-11T16:37:06.617Z,101137.19
2023-02-11T16:39:34.392Z,101135.53
2023-02-11T16:42:02.429Z,101144.16
2023-02-11T16:44:30.260Z,101152.66
2023-02-11T16:47:00.284Z,101155.22
2023-02-11T16:49:31.654Z,101159.44
2023-02-11T16:52:06.125Z,101159.44
2023-02-11T16:54:33.429Z,101163.78
2023-02-11T16:57:00.924Z,101173.16
2023-02-11T16:59:28.203Z,101175.00
2023-02-11T17:01:55.283Z,101192.09
2023-02-11T17:04:26.188Z,101186.91
2023-02-11T17:06:53.344Z,101184.47
2023-02-11T17:09:27.117Z,101192.19
2023-02-11T17:11:55.513Z,101193.94
2023-02-11T17:14:22.592Z,101210.13
2023-02-11T17:16:49.876Z,101216.19
2023-02-11T17:19:21.196Z,101211.91
2023-02-11T17:21:50.517Z,101216.19
2023-02-11T17:24:18.437Z,101226.44
2023-02-11T17:26:46.255Z,101228.19
2023-02-11T17:29:16.008Z,101231.56
2023-02-11T17:31:43.364Z,101236.75
2023-02-11T17:34:11.016Z,101229.84
2023-02-11T17:36:38.074Z,101240.19
2023-02-11T17:39:08.146Z,101245.31
2023-02-11T17:41:36.505Z,101243.47
2023-02-11T17:44:04.640Z,101252.09
2023-02-11T17:46:32.544Z,101258.97
2023-02-11T17:48:59.851Z,101266.69
2023-02-11T17:51:32.855Z,101276.09
2023-02-11T17:54:03.100Z,101276.94
2023-02-11T17:56:32.738Z,101285.41
2023-02-11T17:59:00.035Z,101276.88
2023-02-11T18:01:28.068Z,101272.50
2023-02-11T18:03:55.249Z,101287.97
2023-02-11T18:06:22.408Z,101293.13
2023-02-11T18:08:49.700Z,101299.09
2023-02-11T18:11:17.605Z,101289.63
2023-02-11T18:13:54.503Z,101294.72
2023-02-11T18:16:23.486Z,101303.38
2023-02-11T18:18:51.754Z,101305.84
2023-02-11T18:21:21.410Z,101300.00
2023-02-11T18:23:49.502Z,101312.00
2023-02-11T18:26:18.888Z,101309.44
2023-02-11T18:28:46.542Z,101314.56
2023-02-11T18:31:14.703Z,101313.72
2023-02-11T18:33:42.786Z,101316.25
2023-02-11T18:36:13.424Z,101320.53
2023-02-11T18:38:41.543Z,101323.88
2023-02-11T18:41:09.206Z,101329.00
2023-02-11T18:43:37.437Z,101329.88
2023-02-11T18:46:13.514Z,101323.03
2023-02-11T18:48:41.547Z,101315.25
2023-02-11T18:51:14.923Z,101317.03
2023-02-11T18:53:43.462Z,101326.31
2023-02-11T18:56:20.464Z,101349.53
2023-02-11T18:58:48.149Z,101352.94
2023-02-11T19:01:18.596Z,101355.53
2023-02-11T19:03:46.165Z,101358.91
2023-02-11T19:06:24.976Z,101369.13
2023-02-11T19:08:59.535Z,101371.75
2023-02-11T19:11:47.366Z,101369.94
2023-02-11T19:14:16.748Z,101366.47
2023-02-11T19:16:46.284Z,101364.81
2023-02-11T19:19:14.098Z,101369.94
2023-02-11T19:21:43.993Z,101374.13
2023-02-11T19:24:11.760Z,101387.06
2023-02-11T19:26:39.474Z,101391.34
2023-02-11T19:29:06.754Z,101400.63
2023-02-11T19:31:34.633Z,101395.59
2023-02-11T19:34:03.088Z,101399.09
2023-02-11T19:36:30.760Z,101402.38
2023-02-11T19:39:01.682Z,101400.72
2023-02-11T19:41:30.207Z,101408.47
2023-02-11T19:43:57.286Z,101402.38
2023-02-11T19:46:32.326Z,101415.28
2023-02-11T19:49:00.904Z,101429.84
2023-02-11T19:51:28.422Z,101425.50
2023-02-11T19:53:55.764Z,101437.47
2023-02-11T19:56:23.322Z,101446.97
2023-02-11T19:58:50.440Z,101455.50
2023-02-11T20:01:22.388Z,101458.88
2023-02-11T20:03:50.880Z,101459.00
2023-02-11T20:06:23.726Z,101464.13
2023-02-11T20:08:58.326Z,101473.53
2023-02-11T20:11:28.379Z,101475.25
2023-02-11T20:13:56.629Z,101474.16
2023-02-11T20:16:40.636Z,101485.44
2023-02-11T20:19:08.218Z,101505.03
2023-02-11T20:21:35.390Z,101502.44
2023-02-11T20:24:03.111Z,101499.69
2023-02-11T20:26:33.252Z,101518.59
2023-02-11T20:29:04.298Z,101521.97
2023-02-11T20:31:32.485Z,101530.47
2023-02-11T20:34:01.366Z,101528.75
2023-02-11T20:36:32.390Z,101537.22
2023-02-11T20:39:00.560Z,101538.91
2023-02-11T20:41:31.113Z,101533.69
2023-02-11T20:44:01.733Z,101543.91
2023-02-11T20:46:31.395Z,101552.41
2023-02-11T20:48:59.449Z,101550.78
2023-02-11T20:51:28.947Z,101559.28
2023-02-11T20:53:56.269Z,101569.53
2023-02-11T20:56:29.907Z,101577.94
2023-02-11T20:59:01.262Z,101585.75
2023-02-11T21:01:37.489Z,101588.31
2023-02-11T21:04:12.158Z,101591.69
2023-02-11T21:06:42.269Z,101595.06
2023-02-11T21:09:13.666Z,101602.72
2023-02-11T21:11:41.555Z,101594.97
2023-02-11T21:14:10.081Z,101607.69
2023-02-11T21:16:37.661Z,101611.00
2023-02-11T21:19:05.539Z,101618.66
2023-02-11T21:21:33.178Z,101626.94
2023-02-11T21:24:00.839Z,101630.06
2023-02-11T21:26:28.035Z,101642.09
2023-02-11T21:28:55.418Z,101655.69
2023-02-11T21:31:26.286Z,101661.59
2023-02-11T21:33:56.986Z,101659.09
2023-02-11T21:36:24.305Z,101667.72
2023-02-11T21:38:51.694Z,101676.19
2023-02-11T21:41:22.739Z,101679.47
2023-02-11T21:43:51.129Z,101687.22
2023-02-11T21:46:19.400Z,101682.03
2023-02-11T21:48:47.128Z,101685.47
2023-02-11T21:51:17.751Z,101683.03
2023-02-11T21:53:45.366Z,101684.72
2023-02-11T21:56:18.498Z,101686.44
2023-02-11T21:58:46.399Z,101696.66
2023-02-11T22:01:16.419Z,101691.47
2023-02-11T22:03:44.158Z,101690.50
2023-02-11T22:06:14.298Z,101694.63
2023-02-11T22:08:41.766Z,101691.78
2023-02-11T22:11:11.673Z,101705.56
2023-02-11T22:13:38.986Z,101702.06
2023-02-11T22:16:09.392Z,101708.94
2023-02-11T22:18:36.773Z,101716.53
2023-02-11T22:21:12.418Z,101719.09
2023-02-11T22:23:40.427Z,101719.75
2023-02-11T22:26:13.738Z,101724.06
2023-02-11T22:28:41.198Z,101731.63
2023-02-11T22:31:13.560Z,101733.28
2023-02-11T22:33:40.933Z,101738.25
2023-02-11T22:36:14.434Z,101739.91
2023-02-11T22:38:41.594Z,101732.78
2023-02-11T22:41:10.965Z,101749.88
2023-02-11T22:43:38.917Z,101761.78
2023-02-11T22:46:07.841Z,101761.63
2023-02-11T22:48:35.812Z,101768.53
2023-02-11T22:51:11.122Z,101777.06
2023-02-11T22:53:38.614Z,101771.88
2023-02-11T22:56:15.190Z,101778.88
2023-02-11T22:58:43.483Z,101788.25
2023-02-11T23:01:11.421Z,101792.50
2023-02-11T23:03:39.135Z,101797.47
2023-02-11T23:06:06.797Z,101801.41
2023-02-11T23:08:34.612Z,101798.84
2023-02-11T23:11:08.009Z,101798.59
2023-02-11T23:13:37.668Z,101813.72
2023-02-11T23:16:07.105Z,101814.34
2023-02-11T23:18:35.869Z,101817.38
2023-02-11T23:21:12.667Z,101839.34
2023-02-11T23:23:40.366Z,101840.81
2023-02-11T23:26:12.457Z,101840.63
2023-02-11T23:28:40.044Z,101841.34
2023-02-11T23:31:18.882Z,101843.88
2023-02-11T23:33:47.235Z,101843.88
2023-02-11T23:36:15.403Z,101844.59
2023-02-11T23:38:42.752Z,101847.91
2023-02-11T23:41:11.209Z,101862.38
2023-02-11T23:43:38.802Z,101860.56
2023-02-11T23:46:06.662Z,101852.81
2023-02-11T23:48:36.091Z,101857.78
2023-02-11T23:51:03.864Z,101862.78
2023-02-11T23:53:31.018Z,101873.00
2023-02-11T23:55:58.416Z,101874.75
2023-02-11T23:58:25.795Z,101883.09
